Time;durP1;ratioP1;P1;durP2;ratioP2;P2;SDS_P1;SDS_P2;PMS_P1;PMS_P2;Temp;Humidity;BMP_temperature;BMP_pressure;BME280_temperature;BME280_humidity;BME280_pressure;Samples;Min_cycle;Max_cycle;Signal;HPM_P1;HPM_P2
2022/12/11 00:02:04;;;;;;;;;;;;;;;20.60;43.90;100614.16;5028107;28;4438;-60
2022/12/11 00:04:31;;;;;;;;;;;;;;;20.61;43.95;100617.78;5033111;28;3948;-62
2022/12/11 00:06:57;;;;;;;;;;;;;;;20.61;43.84;100612.75;5033905;28;4164;-59
2022/12/11 00:09:23;;;;;;;;;;;;;;;20.62;43.96;100613.53;5032572;28;4185;-60
2022/12/11 00:11:50;;;;;;;;;;;;;;;20.62;44.00;100619.28;5040676;28;4237;-60
2022/12/11 00:14:16;;;;;;;;;;;;;;;20.63;43.95;100620.75;5035394;28;4223;-59
2022/12/11 00:16:42;;;;;;;;;;;;;;;20.63;43.88;100603.47;5034765;28;4333;-60
2022/12/11 00:19:09;;;;;;;;;;;;;;;20.62;43.91;100604.88;5031117;28;4572;-60
2022/12/11 00:21:35;;;;;;;;;;;;;;;20.62;44.03;100613.53;5018605;28;5104;-60
2022/12/11 00:24:01;;;;;;;;;;;;;;;20.62;43.73;100607.78;5031866;28;5302;-60
2022/12/11 00:26:28;;;;;;;;;;;;;;;20.63;43.91;100609.25;5029526;28;4327;-60
2022/12/11 00:28:54;;;;;;;;;;;;;;;20.63;44.05;100598.47;5036337;28;4480;-60
2022/12/11 00:31:21;;;;;;;;;;;;;;;20.63;44.23;100600.59;5032881;28;4274;-60
2022/12/11 00:33:48;;;;;;;;;;;;;;;20.64;44.03;100602.09;5035919;28;4218;-60
2022/12/11 00:36:15;;;;;;;;;;;;;;;20.63;44.24;100589.81;5029851;28;4150;-59
2022/12/11 00:38:42;;;;;;;;;;;;;;;20.62;44.17;100596.25;5037609;28;4165;-60
2022/12/11 00:41:08;;;;;;;;;;;;;;;20.61;44.02;100589.00;5032776;28;5316;-60
2022/12/11 00:43:34;;;;;;;;;;;;;;;20.61;43.98;100591.88;5032388;28;5276;-60
2022/12/11 00:46:01;;;;;;;;;;;;;;;20.61;44.11;100594.75;5038522;28;4381;-60
2022/12/11 00:48:27;;;;;;;;;;;;;;;20.60;44.03;100594.03;5044255;28;4206;-60
2022/12/11 00:50:54;;;;;;;;;;;;;;;20.62;43.95;100590.50;5033632;28;4171;-60
2022/12/11 00:53:20;;;;;;;;;;;;;;;20.63;43.93;100589.09;5028496;28;3913;-60
2022/12/11 00:55:55;;;;;;;;;;;;;;;20.62;43.96;100590.50;5050574;28;5202;-60
2022/12/11 00:58:21;;;;;;;;;;;;;;;20.61;44.05;100583.25;5032849;28;4204;-60
2022/12/11 01:00:50;;;;;;;;;;;;;;;20.61;43.96;100571.75;5037681;28;5407;-60
2022/12/11 01:03:17;;;;;;;;;;;;;;;20.60;43.98;100578.91;5031793;28;5395;-60
2022/12/11 01:05:50;;;;;;;;;;;;;;;20.58;43.98;100584.59;5038980;28;4030;-60
2022/12/11 01:08:17;;;;;;;;;;;;;;;20.57;43.86;100583.84;5035388;28;5135;-60
2022/12/11 01:10:43;;;;;;;;;;;;;;;20.56;43.97;100585.22;5044708;28;4140;-60
2022/12/11 01:13:10;;;;;;;;;;;;;;;20.55;43.80;100585.84;5043011;28;4363;-59
2022/12/11 01:15:40;;;;;;;;;;;;;;;20.54;43.97;100578.63;5045313;28;4189;-60
2022/12/11 01:18:07;;;;;;;;;;;;;;;20.54;43.87;100582.25;5034479;28;4250;-59
2022/12/11 01:20:33;;;;;;;;;;;;;;;20.56;43.81;100590.22;5037188;28;4360;-60
2022/12/11 01:23:00;;;;;;;;;;;;;;;20.58;43.91;100593.22;5030435;28;4271;-59
2022/12/11 01:25:26;;;;;;;;;;;;;;;20.58;44.00;100587.47;5028783;28;5196;-60
2022/12/11 01:27:53;;;;;;;;;;;;;;;20.58;43.92;100593.22;5040693;28;5372;-60
2022/12/11 01:30:19;;;;;;;;;;;;;;;20.58;43.82;100590.34;5042491;28;4121;-60
2022/12/11 01:32:46;;;;;;;;;;;;;;;20.58;44.02;100590.34;5042659;28;5205;-60
2022/12/11 01:35:12;;;;;;;;;;;;;;;20.57;43.74;100583.84;5043472;28;4248;-60
2022/12/11 01:37:38;;;;;;;;;;;;;;;20.56;43.83;100585.22;5035806;28;4199;-60
2022/12/11 01:40:05;;;;;;;;;;;;;;;20.56;43.82;100584.47;5040427;28;4268;-60
2022/12/11 01:42:31;;;;;;;;;;;;;;;20.55;43.80;100591.59;5043631;28;4070;-60
2022/12/11 01:45:16;;;;;;;;;;;;;;;20.55;43.88;100591.59;5045308;28;5253;-59
2022/12/11 01:47:42;;;;;;;;;;;;;;;20.54;43.87;100590.13;5040074;28;4122;-60
2022/12/11 01:50:09;;;;;;;;;;;;;;;20.51;43.83;100592.91;5047175;28;5121;-60
2022/12/11 01:52:35;;;;;;;;;;;;;;;20.51;43.83;100598.69;5059266;28;4107;-60
2022/12/11 01:55:01;;;;;;;;;;;;;;;20.51;43.84;100592.91;5042226;28;4051;-60
2022/12/11 01:57:28;;;;;;;;;;;;;;;20.51;43.69;100592.91;5053133;28;4115;-60
2022/12/11 01:59:54;;;;;;;;;;;;;;;20.52;43.82;100587.91;5042501;28;5040;-60
2022/12/11 02:02:28;;;;;;;;;;;;;;;20.53;43.70;100591.53;5028159;28;3955;-60
2022/12/11 02:04:54;;;;;;;;;;;;;;;20.53;43.69;100586.53;5044097;28;4032;-60
2022/12/11 02:07:20;;;;;;;;;;;;;;;20.55;43.84;100585.84;5053927;28;4041;-59
2022/12/11 02:09:47;;;;;;;;;;;;;;;20.56;43.85;100575.84;5052158;28;4069;-59
2022/12/11 02:12:13;;;;;;;;;;;;;;;20.55;43.76;100583.72;5043838;28;4020;-60
2022/12/11 02:14:54;;;;;;;;;;;;;;;20.55;43.78;100588.72;5047464;28;4392;-60
2022/12/11 02:17:22;;;;;;;;;;;;;;;20.54;43.85;100590.88;5037092;28;4041;-60
2022/12/11 02:19:54;;;;;;;;;;;;;;;20.54;43.79;100598.75;5043148;28;4122;-60
2022/12/11 02:22:26;;;;;;;;;;;;;;;20.53;43.97;100600.16;5044150;28;4131;-60
2022/12/11 02:24:57;;;;;;;;;;;;;;;20.50;43.87;100600.09;5044639;28;5285;-60
2022/12/11 02:27:40;;;;;;;;;;;;;;;20.50;43.80;100602.19;5039352;28;4187;-60
2022/12/11 02:30:07;;;;;;;;;;;;;;;20.49;43.77;100601.47;5039622;28;4035;-60
2022/12/11 02:32:36;;;;;;;;;;;;;;;20.49;43.81;100595.72;5044331;28;4241;-60
2022/12/11 02:35:04;;;;;;;;;;;;;;;20.49;43.84;100594.97;5050466;28;5537;-60
2022/12/11 02:37:31;;;;;;;;;;;;;;;20.50;43.79;100585.69;5032892;28;4111;-61
2022/12/11 02:39:57;;;;;;;;;;;;;;;20.50;43.74;100591.44;5035683;28;4040;-60
2022/12/11 02:42:24;;;;;;;;;;;;;;;20.51;43.67;100589.31;5054896;28;4115;-59
2022/12/11 02:44:51;;;;;;;;;;;;;;;20.53;44.00;100595.16;5043246;28;3997;-60
2022/12/11 02:47:18;;;;;;;;;;;;;;;20.51;43.94;100590.03;5036933;28;4220;-59
2022/12/11 02:49:45;;;;;;;;;;;;;;;20.50;43.84;100591.44;5034231;28;4120;-60
2022/12/11 02:52:12;;;;;;;;;;;;;;;20.53;43.87;100594.41;5029094;28;5218;-60
2022/12/11 02:54:38;;;;;;;;;;;;;;;20.52;43.92;100585.03;5033737;28;4151;-60
2022/12/11 02:57:08;;;;;;;;;;;;;;;20.50;43.80;100585.69;5032420;28;4133;-60
2022/12/11 02:59:35;;;;;;;;;;;;;;;20.49;43.94;100587.09;5036930;28;4119;-60
2022/12/11 03:02:02;;;;;;;;;;;;;;;20.49;43.88;100584.22;5030374;28;4248;-60
2022/12/11 03:04:28;;;;;;;;;;;;;;;20.49;43.77;100589.22;5033921;28;4007;-60
2022/12/11 03:06:55;;;;;;;;;;;;;;;20.47;43.84;100586.25;5045534;28;4110;-59
2022/12/11 03:09:21;;;;;;;;;;;;;;;20.45;43.87;100578.28;5026611;28;4103;-59
2022/12/11 03:11:47;;;;;;;;;;;;;;;20.45;43.86;100572.53;5033774;28;4249;-60
2022/12/11 03:14:14;;;;;;;;;;;;;;;20.43;43.81;100583.97;5034291;28;4118;-59
2022/12/11 03:16:41;;;;;;;;;;;;;;;20.42;43.85;100582.47;5031318;28;4165;-60
2022/12/11 03:19:37;;;;;;;;;;;;;;;20.40;43.82;100596.03;5031270;28;4194;-59
2022/12/11 03:22:10;;;;;;;;;;;;;;;20.40;43.73;100593.91;5020316;28;4109;-60
2022/12/11 03:24:38;;;;;;;;;;;;;;;20.38;43.79;100590.94;5038690;28;4359;-59
2022/12/11 03:27:14;;;;;;;;;;;;;;;20.36;43.82;100599.47;5037415;28;4334;-59
2022/12/11 03:29:42;;;;;;;;;;;;;;;20.35;43.80;100603.75;5021661;28;4159;-60
2022/12/11 03:32:12;;;;;;;;;;;;;;;20.34;43.73;100602.28;5047240;28;5257;-60
2022/12/11 03:35:02;;;;;;;;;;;;;;;20.35;43.72;100598.00;5032459;28;5305;-60
2022/12/11 03:37:29;;;;;;;;;;;;;;;20.38;43.68;100593.06;5026479;28;4091;-59
2022/12/11 03:39:57;;;;;;;;;;;;;;;20.40;43.47;100596.03;5041629;28;5246;-60
2022/12/11 03:42:23;;;;;;;;;;;;;;;20.41;43.62;100601.13;5037811;28;4166;-60
2022/12/11 03:44:49;;;;;;;;;;;;;;;20.42;43.71;100596.84;5034200;28;3972;-59
2022/12/11 03:47:16;;;;;;;;;;;;;;;20.45;43.67;100589.06;5045031;28;4068;-59
2022/12/11 03:49:43;;;;;;;;;;;;;;;20.45;43.58;100589.06;5043341;28;3970;-60
2022/12/11 03:52:09;;;;;;;;;;;;;;;20.47;43.71;100587.00;5026989;28;4906;-60
2022/12/11 03:54:36;;;;;;;;;;;;;;;20.47;43.57;100592.75;5027419;28;4132;-60
2022/12/11 03:57:02;;;;;;;;;;;;;;;20.49;43.61;100584.22;5045466;28;5470;-59
2022/12/11 03:59:29;;;;;;;;;;;;;;;20.49;43.71;100594.97;5037628;28;4185;-59
2022/12/11 04:01:55;;;;;;;;;;;;;;;20.50;43.67;100591.44;5032694;28;4052;-60
2022/12/11 04:04:21;;;;;;;;;;;;;;;20.51;43.68;100583.56;5043873;28;3958;-59
2022/12/11 04:06:48;;;;;;;;;;;;;;;20.51;44.01;100587.16;5036297;28;4059;-59
2022/12/11 04:09:14;;;;;;;;;;;;;;;20.51;43.87;100590.03;5032045;28;4194;-59
2022/12/11 04:11:41;;;;;;;;;;;;;;;20.52;44.12;100587.91;5034861;28;5313;-59
2022/12/11 04:16:53;;;;;;;;;;;;;;;20.54;44.29;100584.38;5031649;28;5389;-60
2022/12/11 04:24:49;;;;;;;;;;;;;;;20.51;44.31;100583.56;5038717;28;4124;-60
2022/12/11 04:27:47;;;;;;;;;;;;;;;20.51;44.28;100586.44;5032983;28;4067;-60
2022/12/11 04:30:03;;;;;;;;;;;;;;;20.50;44.15;100582.81;5031062;28;6680;-60
2022/12/11 04:32:30;;;;;;;;;;;;;;;20.54;44.36;100588.00;5034987;28;5318;-59
2022/12/11 04:34:56;;;;;;;;;;;;;;;20.40;44.42;100576.63;5027235;28;4129;-60
2022/12/11 04:37:22;;;;;;;;;;;;;;;20.38;44.55;100578.69;5034240;28;4128;-60
2022/12/11 04:39:49;;;;;;;;;;;;;;;20.40;43.53;100576.63;5036664;28;3949;-60
2022/12/11 04:42:15;;;;;;;;;;;;;;;20.44;43.15;100581.84;5038046;28;4396;-60
2022/12/11 04:44:41;;;;;;;;;;;;;;;20.44;43.24;100588.31;5035256;28;4140;-59
2022/12/11 04:47:08;;;;;;;;;;;;;;;20.46;43.49;100570.41;5031557;28;4183;-59
2022/12/11 04:49:34;;;;;;;;;;;;;;;20.47;43.62;100577.63;5038051;28;4112;-60
2022/12/11 04:52:00;;;;;;;;;;;;;;;20.47;43.77;100584.13;5034794;28;5564;-59
2022/12/11 04:54:28;;;;;;;;;;;;;;;20.48;43.92;100588.50;5037816;28;4039;-59
2022/12/11 04:56:54;;;;;;;;;;;;;;;20.49;44.24;100581.34;5034802;28;4078;-59
2022/12/11 04:59:21;;;;;;;;;;;;;;;20.50;44.03;100579.94;5034196;28;3971;-60
2022/12/11 05:01:47;;;;;;;;;;;;;;;20.51;44.01;100578.53;5034498;28;5115;-60
2022/12/11 05:04:13;;;;;;;;;;;;;;;20.53;44.09;100574.28;5039564;28;4184;-60
2022/12/11 05:06:40;;;;;;;;;;;;;;;20.51;44.13;100564.16;5042149;28;4172;-60
2022/12/11 05:09:09;;;;;;;;;;;;;;;20.53;44.25;100574.28;5035194;28;4186;-60
2022/12/11 05:11:35;;;;;;;;;;;;;;;20.53;44.24;100565.66;5039943;28;4147;-62
2022/12/11 05:14:03;;;;;;;;;;;;;;;20.54;44.42;100561.38;5029492;28;4205;-60
2022/12/11 05:16:29;;;;;;;;;;;;;;;20.53;44.16;100551.28;5036673;28;4725;-59
2022/12/11 05:18:56;;;;;;;;;;;;;;;20.54;44.51;100556.34;5040577;28;4225;-59
2022/12/11 05:21:22;;;;;;;;;;;;;;;20.53;44.37;100557.03;5046636;28;4164;-60
2022/12/11 05:23:48;;;;;;;;;;;;;;;20.53;44.46;100554.16;5039449;28;5208;-60
2022/12/11 05:26:16;;;;;;;;;;;;;;;20.51;44.13;100549.78;5037681;28;4090;-60
2022/12/11 05:28:42;;;;;;;;;;;;;;;20.51;44.26;100549.78;5034217;28;4143;-60
2022/12/11 05:31:16;;;;;;;;;;;;;;;20.51;44.31;100549.78;5022189;28;4447;-60
2022/12/11 05:33:42;;;;;;;;;;;;;;;20.51;44.31;100555.53;5044878;28;4531;-60
2022/12/11 05:36:12;;;;;;;;;;;;;;;20.50;44.13;100554.06;5034951;28;4176;-60
2022/12/11 05:38:38;;;;;;;;;;;;;;;20.49;44.29;100552.56;5043936;28;4018;-60
2022/12/11 05:41:05;;;;;;;;;;;;;;;20.49;44.14;100549.69;5027073;28;4833;-60
2022/12/11 05:43:32;;;;;;;;;;;;;;;20.49;44.23;100555.44;5026079;28;4045;-61
2022/12/11 05:53:19;;;;;;;;;;;;;;;20.49;44.12;100546.09;5004815;28;4217;-60
2022/12/11 05:55:46;;;;;;;;;;;;;;;20.50;44.09;100548.31;5024500;28;4177;-60
2022/12/11 05:58:12;;;;;;;;;;;;;;;20.51;44.28;100541.16;5045890;28;4083;-60
2022/12/11 06:00:40;;;;;;;;;;;;;;;20.53;44.24;100539.75;5042006;28;4191;-59
2022/12/11 06:03:06;;;;;;;;;;;;;;;20.53;44.29;100537.63;5045107;28;4142;-59
2022/12/11 06:05:39;;;;;;;;;;;;;;;20.55;44.44;100551.31;5036147;28;4050;-59
2022/12/11 06:08:05;;;;;;;;;;;;;;;20.56;44.21;100544.97;5047045;28;5162;-59
2022/12/11 06:10:32;;;;;;;;;;;;;;;20.56;44.48;100553.59;5040829;28;4182;-58
2022/12/11 06:12:58;;;;;;;;;;;;;;;20.56;44.26;100526.94;5037509;28;4301;-59
2022/12/11 06:15:24;;;;;;;;;;;;;;;20.54;44.31;100544.84;5033545;28;3984;-61
2022/12/11 06:17:51;;;;;;;;;;;;;;;20.55;44.16;100534.06;5028765;28;4144;-61
2022/12/11 06:20:17;;;;;;;;;;;;;;;20.53;44.30;100539.75;5024158;28;4143;-61
2022/12/11 06:22:43;;;;;;;;;;;;;;;20.53;44.22;100531.13;5033882;28;4250;-61
2022/12/11 06:25:10;;;;;;;;;;;;;;;20.54;44.21;100527.59;5034488;28;5263;-58
2022/12/11 06:27:37;;;;;;;;;;;;;;;20.53;44.33;100542.63;5031719;28;5165;-59
2022/12/11 06:30:03;;;;;;;;;;;;;;;20.52;44.47;100536.13;5034142;28;5191;-59
2022/12/11 06:32:29;;;;;;;;;;;;;;;20.51;44.31;100541.16;5030854;28;4114;-59
2022/12/11 06:34:56;;;;;;;;;;;;;;;20.51;44.33;100549.03;5033519;28;4173;-59
2022/12/11 06:37:22;;;;;;;;;;;;;;;20.50;44.06;100550.44;5035660;28;5295;-60
2022/12/11 06:39:48;;;;;;;;;;;;;;;20.50;44.20;100545.44;5043137;28;5334;-60
2022/12/11 06:42:16;;;;;;;;;;;;;;;20.50;44.18;100551.19;5034999;28;4199;-60
2022/12/11 06:44:42;;;;;;;;;;;;;;;20.49;44.22;100551.84;5031564;28;5451;-60
2022/12/11 06:47:08;;;;;;;;;;;;;;;20.50;43.92;100556.94;5031733;28;4121;-60
2022/12/11 06:49:35;;;;;;;;;;;;;;;20.51;43.97;100558.41;5037962;28;4042;-60
2022/12/11 06:52:01;;;;;;;;;;;;;;;20.51;44.16;100563.44;5042733;28;5237;-60
2022/12/11 06:54:28;;;;;;;;;;;;;;;20.51;44.02;100552.66;5040187;28;4187;-60
2022/12/11 06:56:54;;;;;;;;;;;;;;;20.52;43.95;100559.13;5031451;28;5283;-60
2022/12/11 06:59:20;;;;;;;;;;;;;;;20.55;44.13;100551.31;5037824;28;4016;-60
2022/12/11 07:01:47;;;;;;;;;;;;;;;20.55;43.97;100557.09;5034622;28;4353;-60
2022/12/11 07:04:13;;;;;;;;;;;;;;;20.56;44.17;100558.56;5030382;28;5128;-60
2022/12/11 07:06:40;;;;;;;;;;;;;;;20.55;44.22;100563.59;5042418;28;4154;-60
2022/12/11 07:09:06;;;;;;;;;;;;;;;20.55;44.05;100563.59;5037101;28;5414;-60
2022/12/11 07:11:32;;;;;;;;;;;;;;;20.56;44.31;100562.22;5030020;28;4156;-60
2022/12/11 07:13:59;;;;;;;;;;;;;;;20.54;44.26;100555.63;5035051;28;4009;-58
2022/12/11 07:16:26;;;;;;;;;;;;;;;20.58;44.16;100553.66;5036557;28;4170;-61
2022/12/11 07:18:52;;;;;;;;;;;;;;;20.57;44.45;100554.31;5031992;28;6214;-61
2022/12/11 07:21:18;;;;;;;;;;;;;;;20.54;44.29;100549.88;5039401;28;4042;-61
2022/12/11 07:23:45;;;;;;;;;;;;;;;20.45;44.46;100543.75;5035685;28;4143;-62
2022/12/11 07:26:12;;;;;;;;;;;;;;;20.55;44.17;100551.31;5034540;28;4192;-61
2022/12/11 07:28:39;;;;;;;;;;;;;;;20.53;44.25;100551.28;5031909;28;4082;-62
2022/12/11 07:31:09;;;;;;;;;;;;;;;20.50;44.04;100556.94;5037077;28;4144;-61
2022/12/11 07:33:35;;;;;;;;;;;;;;;20.49;43.98;100558.31;5036995;28;4336;-61
2022/12/11 07:36:05;;;;;;;;;;;;;;;20.49;43.99;100554.72;5038330;28;4137;-61
2022/12/11 07:38:32;;;;;;;;;;;;;;;20.49;44.21;100572.69;5038127;28;5197;-62
2022/12/11 07:41:01;;;;;;;;;;;;;;;20.50;44.14;100573.44;5040221;28;4265;-61
2022/12/11 07:43:28;;;;;;;;;;;;;;;20.50;44.21;100579.94;5039921;28;4110;-61
2022/12/11 07:45:54;;;;;;;;;;;;;;;20.50;44.31;100568.44;5037589;28;4456;-61
2022/12/11 07:48:20;;;;;;;;;;;;;;;20.51;44.34;100569.91;5039815;28;4075;-61
2022/12/11 07:50:47;;;;;;;;;;;;;;;20.53;44.32;100565.66;5029387;28;4438;-61
2022/12/11 07:53:13;;;;;;;;;;;;;;;20.53;44.61;100565.66;5036191;28;5024;-61
2022/12/11 07:55:39;;;;;;;;;;;;;;;20.54;44.48;100576.47;5035484;28;4036;-62
2022/12/11 07:58:06;;;;;;;;;;;;;;;20.56;44.51;100581.59;5037967;28;3941;-62
2022/12/11 08:00:32;;;;;;;;;;;;;;;20.55;44.64;100580.84;5035425;28;4156;-62
2022/12/11 08:02:58;;;;;;;;;;;;;;;20.55;44.68;100571.47;5039995;28;3945;-62
2022/12/11 08:05:25;;;;;;;;;;;;;;;20.55;44.78;100574.34;5037357;28;3978;-62
2022/12/11 08:07:51;;;;;;;;;;;;;;;20.54;44.49;100575.75;5032050;28;4071;-62
2022/12/11 08:10:18;;;;;;;;;;;;;;;20.53;44.75;100577.16;5032971;28;3935;-62
2022/12/11 08:12:44;;;;;;;;;;;;;;;20.53;44.59;100565.66;5038560;28;4154;-62
2022/12/11 08:15:10;;;;;;;;;;;;;;;20.50;44.54;100565.56;5032497;28;4328;-62
2022/12/11 08:17:37;;;;;;;;;;;;;;;20.49;44.40;100572.69;5036361;28;4092;-62
2022/12/11 08:20:05;;;;;;;;;;;;;;;20.47;44.46;100574.75;5033663;28;4192;-62
2022/12/11 08:22:32;;;;;;;;;;;;;;;20.47;44.42;100566.88;5032675;28;4072;-62
2022/12/11 08:24:58;;;;;;;;;;;;;;;20.46;44.38;100576.91;5035843;28;4016;-61
2022/12/11 08:27:26;;;;;;;;;;;;;;;20.45;44.44;100577.53;5032371;28;4184;-62
2022/12/11 08:29:53;;;;;;;;;;;;;;;20.44;44.41;100581.84;5034127;28;4688;-62
2022/12/11 08:32:19;;;;;;;;;;;;;;;20.45;44.25;100572.53;5034917;28;3894;-62
2022/12/11 08:34:45;;;;;;;;;;;;;;;20.46;44.26;100585.53;5035805;28;4058;-61
2022/12/11 08:37:12;;;;;;;;;;;;;;;20.46;44.19;100576.91;5029323;28;4250;-61
2022/12/11 08:39:38;;;;;;;;;;;;;;;20.47;44.30;100575.50;5038831;28;5187;-62
2022/12/11 08:42:05;;;;;;;;;;;;;;;20.48;44.24;100587.75;5041761;28;4126;-62
2022/12/11 08:44:31;;;;;;;;;;;;;;;20.48;44.36;100570.50;5038726;28;6339;-62
2022/12/11 08:46:58;;;;;;;;;;;;;;;20.49;44.33;100572.69;5047752;28;4246;-62
2022/12/11 08:49:24;;;;;;;;;;;;;;;20.49;44.35;100566.94;5041356;28;3960;-62
2022/12/11 08:51:56;;;;;;;;;;;;;;;20.51;44.31;100569.19;5040613;28;5305;-62
2022/12/11 08:54:22;;;;;;;;;;;;;;;20.51;44.50;100567.03;5049785;28;3917;-61
2022/12/11 08:56:49;;;;;;;;;;;;;;;20.51;44.28;100567.03;5042253;28;3835;-62
2022/12/11 08:59:24;;;;;;;;;;;;;;;20.52;44.26;100564.88;5043819;28;4018;-62
2022/12/11 09:01:50;;;;;;;;;;;;;;;20.47;44.44;100563.97;5043964;28;6228;-62
2022/12/11 09:04:17;;;;;;;;;;;;;;;20.48;44.16;100571.22;5038483;28;4110;-61
2022/12/11 09:06:43;;;;;;;;;;;;;;;20.53;44.47;100577.16;5038118;28;5152;-62
2022/12/11 09:09:09;;;;;;;;;;;;;;;20.48;44.40;100588.50;5032976;28;4112;-61
2022/12/11 09:11:36;;;;;;;;;;;;;;;20.49;44.41;100581.34;5040896;28;5090;-61
2022/12/11 09:14:03;;;;;;;;;;;;;;;20.50;44.40;100579.94;5041122;28;4191;-62
2022/12/11 09:16:36;;;;;;;;;;;;;;;20.49;44.49;100584.22;5045752;28;4033;-61
2022/12/11 09:19:02;;;;;;;;;;;;;;;20.48;44.59;100587.75;5045007;28;4538;-62
2022/12/11 09:21:29;;;;;;;;;;;;;;;20.47;44.63;100592.75;5038876;28;4100;-61
2022/12/11 09:23:56;;;;;;;;;;;;;;;20.44;44.49;100594.06;5042609;28;4292;-62
2022/12/11 09:26:23;;;;;;;;;;;;;;;20.21;43.68;100589.50;5044844;28;4148;-60
2022/12/11 09:28:52;;;;;;;;;;;;;;;20.32;43.32;100578.44;5045841;28;4201;-59
2022/12/11 09:31:23;;;;;;;;;;;;;;;20.43;43.64;100581.09;5033559;28;4197;-60
2022/12/11 09:33:50;;;;;;;;;;;;;;;20.38;42.66;100585.19;5030949;28;4248;-59
2022/12/11 09:36:17;;;;;;;;;;;;;;;20.16;42.44;100584.22;5039071;28;5061;-60
2022/12/11 09:38:44;;;;;;;;;;;;;;;20.28;42.03;100576.88;5036990;28;3967;-60
2022/12/11 09:41:23;;;;;;;;;;;;;;;20.37;42.31;100583.72;5021665;28;3911;-62
2022/12/11 09:44:13;;;;;;;;;;;;;;;20.41;42.62;100575.25;5039204;28;4110;-61
2022/12/11 09:46:40;;;;;;;;;;;;;;;20.44;42.62;100568.19;5038547;28;4237;-60
2022/12/11 09:49:26;;;;;;;;;;;;;;;20.49;42.92;100566.22;5041100;28;4257;-60
2022/12/11 09:52:04;;;;;;;;;;;;;;;20.50;43.25;100561.94;5045357;28;4128;-60
2022/12/11 09:54:31;;;;;;;;;;;;;;;20.53;43.17;100560.63;5041785;28;5282;-64
2022/12/11 09:57:01;;;;;;;;;;;;;;;20.54;43.68;100561.38;5036283;28;4244;-60
2022/12/11 09:59:47;;;;;;;;;;;;;;;20.57;44.05;100563.72;5035762;28;4099;-60
2022/12/11 10:02:29;;;;;;;;;;;;;;;20.56;43.75;100562.22;5044198;28;4195;-60
2022/12/11 10:05:31;;;;;;;;;;;;;;;20.57;43.83;100548.56;5045507;28;4182;-60
2022/12/11 10:08:06;;;;;;;;;;;;;;;20.57;44.14;100549.31;4986026;28;4631;-59
2022/12/11 10:10:42;;;;;;;;;;;;;;;20.57;44.21;100549.31;5031776;28;4465;-61
2022/12/11 10:13:12;;;;;;;;;;;;;;;20.56;44.06;100536.31;5046873;28;4133;-60
2022/12/11 10:15:39;;;;;;;;;;;;;;;20.57;44.16;100542.81;5053998;28;4254;-60
2022/12/11 10:18:09;;;;;;;;;;;;;;;20.56;43.92;100538.44;5043278;28;4153;-60
2022/12/11 10:20:38;;;;;;;;;;;;;;;20.55;44.05;100534.84;5039954;28;4496;-60
2022/12/11 10:23:08;;;;;;;;;;;;;;;20.56;44.07;100533.44;5046902;28;4324;-60
2022/12/11 10:25:34;;;;;;;;;;;;;;;20.56;44.35;100535.56;5049045;28;4213;-60
2022/12/11 10:28:07;;;;;;;;;;;;;;;20.57;44.00;100537.06;5044529;28;4252;-60
2022/12/11 10:30:37;;;;;;;;;;;;;;;20.58;44.38;100530.66;5045571;28;4186;-60
2022/12/11 10:33:09;;;;;;;;;;;;;;;20.58;44.21;100535.69;5052294;28;4028;-60
2022/12/11 10:35:42;;;;;;;;;;;;;;;20.57;44.24;100537.06;5045768;28;4274;-61
2022/12/11 10:38:35;;;;;;;;;;;;;;;20.60;44.27;100532.88;5047482;28;4285;-60
2022/12/11 10:41:09;;;;;;;;;;;;;;;20.60;44.39;100519.22;5041513;28;4031;-60
2022/12/11 10:43:36;;;;;;;;;;;;;;;20.59;44.33;100523.53;5039364;28;3946;-60
2022/12/11 10:46:02;;;;;;;;;;;;;;;20.61;44.25;100526.47;5047808;28;4024;-60
2022/12/11 10:48:29;;;;;;;;;;;;;;;20.59;44.28;100519.88;5045908;28;4036;-60
2022/12/11 10:50:59;;;;;;;;;;;;;;;20.59;44.44;100523.53;5036889;28;4636;-61
2022/12/11 10:53:26;;;;;;;;;;;;;;;20.59;44.36;100522.75;5043415;28;4207;-60
2022/12/11 10:55:52;;;;;;;;;;;;;;;20.60;44.17;100518.50;5034964;28;4229;-60
2022/12/11 10:58:19;;;;;;;;;;;;;;;20.61;44.43;100525.72;5036750;28;4033;-60
2022/12/11 11:00:45;;;;;;;;;;;;;;;20.59;44.39;100508.38;5040066;28;4180;-60
2022/12/11 11:03:21;;;;;;;;;;;;;;;20.59;44.32;100508.38;5033685;28;4117;-60
2022/12/11 11:05:49;;;;;;;;;;;;;;;20.60;44.40;100507.00;5040304;28;4138;-60
2022/12/11 11:08:18;;;;;;;;;;;;;;;20.61;44.38;100512.06;5043859;28;4104;-60
2022/12/11 11:10:54;;;;;;;;;;;;;;;20.63;44.35;100509.28;5038925;28;4181;-60
2022/12/11 11:13:21;;;;;;;;;;;;;;;20.62;44.26;100504.94;5040327;28;4255;-60
2022/12/11 11:15:48;;;;;;;;;;;;;;;20.62;44.24;100499.19;5043402;28;4171;-60
2022/12/11 11:18:21;;;;;;;;;;;;;;;20.64;44.43;100496.38;5024359;28;5290;-61
2022/12/11 11:20:48;;;;;;;;;;;;;;;20.70;44.40;100496.59;5028804;28;5192;-58
2022/12/11 11:23:14;;;;;;;;;;;;;;;20.72;44.27;100495.97;5044244;28;4106;-61
2022/12/11 11:25:47;;;;;;;;;;;;;;;20.67;44.29;100494.31;5038341;28;5229;-59
2022/12/11 11:28:19;;;;;;;;;;;;;;;20.64;44.22;100489.91;5038161;28;4567;-58
2022/12/11 11:30:56;;;;;;;;;;;;;;;20.63;44.28;100488.41;5044958;28;4132;-59
2022/12/11 11:33:22;;;;;;;;;;;;;;;20.61;44.03;100474.69;5049100;28;5127;-59
2022/12/11 11:35:52;;;;;;;;;;;;;;;20.61;44.17;100479.69;5036256;28;4292;-59
2022/12/11 11:38:19;;;;;;;;;;;;;;;20.59;44.17;100470.97;5042757;28;4042;-58
2022/12/11 11:40:45;;;;;;;;;;;;;;;20.59;43.96;100477.50;5043272;28;4054;-59
2022/12/11 11:43:19;;;;;;;;;;;;;;;20.58;44.08;100467.38;5036310;28;4150;-59
2022/12/11 11:45:48;;;;;;;;;;;;;;;20.58;44.07;100463.75;5043878;28;5188;-58
2022/12/11 11:48:29;;;;;;;;;;;;;;;20.58;44.05;100466.63;5047696;28;4135;-58
2022/12/11 11:50:56;;;;;;;;;;;;;;;20.58;43.94;100458.00;5044841;28;5268;-58
2022/12/11 11:53:29;;;;;;;;;;;;;;;20.59;44.00;100465.22;5040214;28;4026;-59
2022/12/11 11:56:09;;;;;;;;;;;;;;;20.60;43.94;100466.72;5043140;28;4175;-59
2022/12/11 11:58:38;;;;;;;;;;;;;;;20.61;44.02;100462.44;5048185;28;4188;-59
2022/12/11 12:01:07;;;;;;;;;;;;;;;20.62;44.16;100469.69;5041312;28;4904;-59
2022/12/11 12:03:34;;;;;;;;;;;;;;;20.61;44.08;100462.44;5046852;28;4516;-59
2022/12/11 12:06:03;;;;;;;;;;;;;;;20.61;44.03;100457.41;5039338;28;4199;-59
2022/12/11 12:08:45;;;;;;;;;;;;;;;20.60;43.75;100460.97;5040215;28;4114;-60
2022/12/11 12:11:24;;;;;;;;;;;;;;;20.66;43.86;100464.81;5040605;28;4097;-62
2022/12/11 12:14:01;;;;;;;;;;;;;;;20.70;43.88;100455.59;5052902;28;4145;-64
2022/12/11 12:16:42;;;;;;;;;;;;;;;20.79;45.23;100453.78;5049546;28;4154;-67
2022/12/11 12:19:18;;;;;;;;;;;;;;;20.86;45.54;100455.47;5035420;28;4174;-58
2022/12/11 12:21:46;;;;;;;;;;;;;;;20.87;44.81;100457.69;5043018;28;4278;-60
2022/12/11 12:24:28;;;;;;;;;;;;;;;20.92;44.95;100452.84;5047263;28;4180;-55
2022/12/11 12:26:58;;;;;;;;;;;;;;;20.93;44.90;100457.19;5040218;28;4081;-46
2022/12/11 12:29:44;;;;;;;;;;;;;;;20.95;44.39;100460.13;5037560;28;4182;-51
2022/12/11 12:32:26;;;;;;;;;;;;;;;20.96;45.46;100455.88;5032637;28;4603;-66
2022/12/11 12:34:55;;;;;;;;;;;;;;;20.91;45.00;100451.34;5034915;28;3960;-65
2022/12/11 12:37:34;;;;;;;;;;;;;;;20.85;45.43;100446.13;5042803;28;5457;-66
2022/12/11 12:40:15;;;;;;;;;;;;;;;20.80;45.50;100449.47;5038136;28;4103;-66
2022/12/11 12:42:53;;;;;;;;;;;;;;;20.78;45.83;100453.03;5033236;28;4177;-66
2022/12/11 12:45:38;;;;;;;;;;;;;;;20.78;45.78;100447.28;5041227;28;4025;-67
2022/12/11 12:48:05;;;;;;;;;;;;;;;20.91;45.43;100455.00;5037291;28;4156;-65
2022/12/11 12:50:35;;;;;;;;;;;;;;;21.17;45.88;100450.88;5030389;28;4303;-66
2022/12/11 12:53:02;;;;;;;;;;;;;;;21.37;45.05;100451.56;5043662;28;4140;-66
2022/12/11 12:55:28;;;;;;;;;;;;;;;21.15;44.83;100442.16;5035652;28;4346;-66
2022/12/11 12:57:56;;;;;;;;;;;;;;;21.01;45.39;100443.09;5028078;28;5439;-66
2022/12/11 13:00:26;;;;;;;;;;;;;;;21.05;45.81;100437.50;5021059;28;4131;-68
2022/12/11 13:02:55;;;;;;;;;;;;;;;21.10;45.92;100447.03;5029765;28;5342;-68
2022/12/11 13:05:30;;;;;;;;;;;;;;;21.17;45.35;100434.31;5031950;28;4281;-69
2022/12/11 13:07:58;;;;;;;;;;;;;;;21.13;45.24;100439.94;5034536;28;4129;-65
2022/12/11 13:10:27;;;;;;;;;;;;;;;21.08;45.31;100435.44;5026303;28;4207;-65
2022/12/11 13:12:53;;;;;;;;;;;;;;;21.03;45.54;100436.69;5037552;28;5400;-67